Time;durP1;ratioP1;P1;durP2;ratioP2;P2;SDS_P1;SDS_P2;PMS_P1;PMS_P2;Temp;Humidity;BMP_temperature;BMP_pressure;BME280_temperature;BME280_humidity;BME280_pressure;Samples;Min_cycle;Max_cycle;Signal;HPM_P1;HPM_P2
2024/04/19 00:01:37;;;;;;;20.60;18.87;;;5.20;99.90;;;;;;5171336;27;20249;-79
2024/04/19 00:04:06;;;;;;;18.43;17.07;;;5.20;99.90;;;;;;5143534;27;20776;-79
2024/04/19 00:06:32;;;;;;;20.03;18.43;;;5.20;99.90;;;;;;5143107;27;20245;-79
2024/04/19 00:09:03;;;;;;;20.27;18.70;;;5.20;99.90;;;;;;5142831;27;20354;-79
2024/04/19 00:11:29;;;;;;;18.73;17.40;;;5.30;99.90;;;;;;5140077;27;20250;-78
2024/04/19 00:13:58;;;;;;;19.33;17.83;;;5.30;99.90;;;;;;5155975;27;20236;-79
2024/04/19 00:16:25;;;;;;;19.23;17.77;;;5.30;99.90;;;;;;5134595;27;20244;-79
2024/04/19 00:18:53;;;;;;;17.67;16.27;;;5.30;99.90;;;;;;5142144;27;20322;-79
2024/04/19 00:21:19;;;;;;;18.40;17.10;;;5.30;99.90;;;;;;5130122;27;20374;-79
2024/04/19 00:23:47;;;;;;;19.47;18.00;;;5.30;99.90;;;;;;5144625;27;20250;-79
2024/04/19 00:26:16;;;;;;;17.90;16.60;;;5.30;99.90;;;;;;5142828;27;20778;-78
2024/04/19 00:28:44;;;;;;;18.63;17.27;;;5.20;99.90;;;;;;5144970;27;20268;-79
2024/04/19 00:31:10;;;;;;;18.27;16.87;;;5.20;99.90;;;;;;5144745;27;20245;-78
2024/04/19 00:33:38;;;;;;;19.23;17.60;;;5.20;99.90;;;;;;5131576;27;20300;-79
2024/04/19 00:36:05;;;;;;;18.50;17.10;;;5.20;99.90;;;;;;5144837;27;20344;-79
2024/04/19 00:38:33;;;;;;;18.07;16.77;;;5.10;99.90;;;;;;5139733;27;20258;-79
2024/04/19 00:40:59;;;;;;;17.63;16.43;;;5.00;99.90;;;;;;5135565;27;20254;-79
2024/04/19 00:43:30;;;;;;;17.87;16.53;;;5.00;99.90;;;;;;5144597;27;20291;-78
2024/04/19 00:45:56;;;;;;;18.07;16.67;;;4.90;99.90;;;;;;5166554;27;20269;-79
2024/04/19 00:48:27;;;;;;;18.17;16.90;;;4.90;99.90;;;;;;5125477;27;20247;-79
2024/04/19 00:50:55;;;;;;;18.63;17.23;;;4.90;99.90;;;;;;5134524;27;20591;-78
2024/04/19 00:53:26;;;;;;;17.93;16.63;;;4.80;99.90;;;;;;5139995;27;20328;-78
2024/04/19 00:55:54;;;;;;;19.23;17.73;;;4.80;99.90;;;;;;5142444;27;20326;-79
2024/04/19 00:58:23;;;;;;;18.10;16.80;;;4.70;99.90;;;;;;5115385;27;20250;-79
2024/04/19 01:00:52;;;;;;;17.47;16.20;;;4.60;99.90;;;;;;5127460;27;20601;-79
2024/04/19 01:03:20;;;;;;;17.50;16.20;;;4.70;99.90;;;;;;5131059;27;20239;-79
2024/04/19 01:05:46;;;;;;;17.73;16.47;;;4.60;99.90;;;;;;5138390;27;20251;-80
2024/04/19 01:08:27;;;;;;;17.90;16.60;;;4.60;99.90;;;;;;5143351;27;20253;-79
2024/04/19 01:10:53;;;;;;;18.17;16.73;;;4.60;99.90;;;;;;5138589;27;20254;-79
2024/04/19 01:13:22;;;;;;;16.97;15.70;;;4.70;99.90;;;;;;5143083;27;20292;-79
2024/04/19 01:15:48;;;;;;;18.87;17.40;;;4.70;99.90;;;;;;5136105;27;20241;-79
2024/04/19 01:18:19;;;;;;;18.93;17.43;;;4.70;99.90;;;;;;5140985;27;20302;-79
2024/04/19 01:24:40;;;;;;;18.27;16.87;;;4.70;99.90;;;;;;5129817;27;20293;-79
2024/04/19 01:27:09;;;;;;;18.37;16.87;;;4.70;99.90;;;;;;5139059;27;20240;-78
2024/04/19 01:29:38;;;;;;;17.97;16.67;;;4.80;99.90;;;;;;5142323;27;20276;-79
2024/04/19 01:32:05;;;;;;;18.87;17.27;;;4.70;99.90;;;;;;5131985;27;20249;-78
2024/04/19 01:34:33;;;;;;;18.13;16.83;;;4.70;99.90;;;;;;5143996;27;20253;-79
2024/04/19 01:36:59;;;;;;;18.10;16.70;;;4.70;99.90;;;;;;5146434;27;20240;-78
2024/04/19 01:39:28;;;;;;;18.43;17.00;;;4.80;99.90;;;;;;5178479;27;20314;-78
2024/04/19 01:41:54;;;;;;;18.87;17.37;;;4.80;99.90;;;;;;5145049;27;20253;-79
2024/04/19 01:44:25;;;;;;;17.53;16.23;;;4.80;99.90;;;;;;5124103;27;20242;-79
2024/04/19 01:46:51;;;;;;;14.70;13.50;;;4.80;99.90;;;;;;5146487;27;20236;-79
2024/04/19 01:49:19;;;;;;;16.10;14.80;;;4.80;99.90;;;;;;5136123;27;20783;-78
2024/04/19 01:51:45;;;;;;;15.33;14.03;;;4.80;99.90;;;;;;5147160;27;20245;-79
2024/04/19 01:54:15;;;;;;;17.27;15.97;;;4.90;99.90;;;;;;5145791;27;20351;-79
2024/04/19 01:56:41;;;;;;;17.30;15.90;;;4.90;99.90;;;;;;5129101;27;20246;-79
2024/04/19 01:59:09;;;;;;;18.87;17.37;;;4.90;99.90;;;;;;5124984;27;20321;-79
2024/04/19 02:01:38;;;;;;;18.20;16.87;;;4.90;99.90;;;;;;5143796;27;20245;-79
2024/04/19 02:04:06;;;;;;;18.60;17.20;;;4.90;99.90;;;;;;5132637;27;20371;-78
2024/04/19 02:06:32;;;;;;;18.70;17.37;;;4.90;99.90;;;;;;5134069;27;20242;-79
2024/04/19 02:09:01;;;;;;;18.10;16.80;;;4.90;99.90;;;;;;5144659;27;20299;-79
2024/04/19 02:11:26;;;;;;;18.63;17.23;;;4.90;99.90;;;;;;5146451;27;20241;-79
2024/04/19 02:13:55;;;;;;;18.70;17.20;;;5.00;99.90;;;;;;5138318;27;20241;-79
2024/04/19 02:16:21;;;;;;;19.47;17.90;;;4.90;99.90;;;;;;5137891;27;20300;-79
2024/04/19 02:18:52;;;;;;;18.77;17.13;;;4.90;99.90;;;;;;5133746;27;20772;-79
2024/04/19 02:21:18;;;;;;;18.07;16.67;;;4.90;99.90;;;;;;5146839;27;20245;-79
2024/04/19 02:23:46;;;;;;;18.53;17.03;;;4.90;99.90;;;;;;5132294;27;20248;-79
2024/04/19 02:26:12;;;;;;;18.53;17.13;;;4.90;99.90;;;;;;5144912;27;20646;-79
2024/04/19 02:31:26;;;;;;;18.23;16.73;;;4.80;99.90;;;;;;5160386;27;20748;-79
2024/04/19 02:33:57;;;;;;;18.03;16.73;;;4.80;99.90;;;;;;5145545;27;20248;-79
2024/04/19 02:36:26;;;;;;;19.43;17.83;;;4.80;99.90;;;;;;5155543;27;20295;-77
2024/04/19 02:38:54;;;;;;;19.00;17.57;;;4.80;99.90;;;;;;5124888;27;20245;-78
2024/04/19 02:41:23;;;;;;;17.57;16.20;;;4.80;99.90;;;;;;5153379;27;20241;-80
2024/04/19 02:43:51;;;;;;;17.90;16.50;;;4.80;99.90;;;;;;5139264;27;20251;-79
2024/04/19 02:46:20;;;;;;;18.33;16.77;;;4.80;99.90;;;;;;5127340;27;20243;-78
2024/04/19 02:48:49;;;;;;;18.80;17.30;;;4.90;99.90;;;;;;5152815;27;20249;-78
2024/04/19 02:51:18;;;;;;;19.13;17.67;;;4.90;99.90;;;;;;5140236;27;20335;-80
2024/04/19 02:53:47;;;;;;;18.43;16.93;;;4.90;99.90;;;;;;5146622;27;20418;-81
2024/04/19 02:56:15;;;;;;;18.33;16.93;;;4.90;99.90;;;;;;5134981;27;20299;-82
2024/04/19 02:58:44;;;;;;;19.13;17.63;;;5.00;99.90;;;;;;5125340;27;20257;-82
2024/04/19 03:01:12;;;;;;;18.87;17.47;;;4.90;99.90;;;;;;5144713;27;20305;-82
2024/04/19 03:03:41;;;;;;;18.63;17.13;;;4.90;99.90;;;;;;5146747;27;20355;-82
2024/04/19 03:06:09;;;;;;;18.87;17.37;;;4.90;99.90;;;;;;5143729;27;20256;-81
2024/04/19 03:08:42;;;;;;;18.50;16.90;;;4.90;99.90;;;;;;5135071;27;20300;-83
2024/04/19 03:11:10;;;;;;;18.53;17.00;;;4.80;99.90;;;;;;5164133;27;20272;-82
2024/04/19 03:13:39;;;;;;;18.50;16.90;;;4.80;99.90;;;;;;5137273;27;20257;-81
2024/04/19 03:16:08;;;;;;;18.57;17.07;;;4.80;99.90;;;;;;5145438;27;20241;-82
2024/04/19 03:18:44;;;;;;;17.77;16.37;;;4.80;99.90;;;;;;5141559;27;20252;-82
2024/04/19 03:21:12;;;;;;;19.10;17.50;;;4.70;99.90;;;;;;5149152;27;20261;-81
2024/04/19 03:23:43;;;;;;;18.67;17.17;;;4.80;99.90;;;;;;5157900;27;20292;-82
2024/04/19 03:26:12;;;;;;;19.37;17.67;;;4.80;99.90;;;;;;5131505;27;20296;-82
2024/04/19 03:28:40;;;;;;;18.83;17.37;;;4.80;99.90;;;;;;5144710;27;20394;-81
2024/04/19 03:31:10;;;;;;;18.10;16.80;;;4.80;99.90;;;;;;5132257;27;20276;-80
2024/04/19 03:33:36;;;;;;;18.67;17.17;;;4.80;99.90;;;;;;5129506;27;20287;-82
2024/04/19 03:36:06;;;;;;;18.70;17.10;;;4.80;99.90;;;;;;5138262;27;20318;-80
2024/04/19 03:38:35;;;;;;;18.50;17.00;;;4.80;99.90;;;;;;5158890;27;20273;-81
2024/04/19 03:41:06;;;;;;;19.67;18.00;;;4.80;99.90;;;;;;5145418;27;20742;-80
2024/04/19 03:43:40;;;;;;;17.87;16.47;;;4.80;99.90;;;;;;5146579;27;20246;-78
2024/04/19 03:46:06;;;;;;;18.10;16.60;;;4.80;99.90;;;;;;5146388;27;20252;-79
2024/04/19 03:48:35;;;;;;;19.87;18.27;;;4.80;99.90;;;;;;5132881;27;20256;-78
2024/04/19 03:51:04;;;;;;;18.63;17.00;;;4.80;99.90;;;;;;5147025;27;21079;-82
2024/04/19 03:53:32;;;;;;;17.60;16.30;;;4.80;99.90;;;;;;5148094;27;20243;-81
2024/04/19 03:56:01;;;;;;;18.30;16.87;;;4.80;99.90;;;;;;5137244;27;20297;-80
2024/04/19 03:58:32;;;;;;;18.63;17.23;;;4.80;99.90;;;;;;5144843;27;20360;-80
2024/04/19 04:01:06;;;;;;;19.60;18.10;;;4.90;99.90;;;;;;5133235;27;20241;-80
2024/04/19 04:03:35;;;;;;;18.20;16.80;;;4.80;99.90;;;;;;5141898;27;20271;-79
2024/04/19 04:06:04;;;;;;;18.83;17.33;;;4.90;99.90;;;;;;5153690;27;20273;-79
2024/04/19 04:08:32;;;;;;;19.97;18.20;;;4.80;99.90;;;;;;5160833;27;20241;-79
2024/04/19 04:11:02;;;;;;;19.93;18.33;;;4.90;99.90;;;;;;5126578;27;20241;-80
2024/04/19 04:13:33;;;;;;;18.93;17.47;;;4.90;99.90;;;;;;5151783;27;20641;-79
2024/04/19 04:16:01;;;;;;;19.87;18.27;;;4.90;99.90;;;;;;5118892;27;20241;-80
2024/04/19 04:18:30;;;;;;;19.57;18.03;;;5.00;99.90;;;;;;5143089;27;20729;-80
2024/04/19 04:20:58;;;;;;;18.67;17.27;;;5.00;99.90;;;;;;5142347;27;20244;-79
2024/04/19 04:23:27;;;;;;;19.80;18.07;;;4.90;99.90;;;;;;5151416;27;20291;-80
2024/04/19 04:25:55;;;;;;;20.20;18.60;;;4.90;99.90;;;;;;5157271;27;20283;-80
2024/04/19 04:28:24;;;;;;;19.17;17.67;;;5.00;99.90;;;;;;5132583;27;20269;-80
2024/04/19 04:30:55;;;;;;;19.07;17.57;;;5.00;99.90;;;;;;5142781;27;20293;-79
2024/04/19 04:33:23;;;;;;;19.30;17.77;;;4.90;99.90;;;;;;5134685;27;20361;-79
2024/04/19 04:35:52;;;;;;;19.47;18.00;;;5.00;99.90;;;;;;5142861;27;20695;-80
2024/04/19 04:38:20;;;;;;;20.10;18.37;;;5.00;99.90;;;;;;5159966;22;20291;-83
2024/04/19 04:40:49;;;;;;;20.13;18.53;;;5.00;99.90;;;;;;5197987;27;20360;-82
2024/04/19 04:43:17;;;;;;;20.80;18.90;;;5.00;99.90;;;;;;5186288;27;20278;-83
2024/04/19 04:45:47;;;;;;;19.73;18.13;;;5.00;99.90;;;;;;5179345;27;20358;-84
2024/04/19 04:48:19;;;;;;;20.63;18.73;;;5.10;99.90;;;;;;5186361;27;20276;-83
2024/04/19 04:50:47;;;;;;;19.57;17.97;;;5.00;99.90;;;;;;5199364;27;20274;-84
2024/04/19 04:53:13;;;;;;;20.50;18.80;;;5.10;99.90;;;;;;5192193;27;20244;-84
2024/04/19 04:55:42;;;;;;;20.63;18.83;;;5.20;99.90;;;;;;5182782;27;20460;-82
2024/04/19 04:58:10;;;;;;;20.33;18.63;;;5.10;99.90;;;;;;5183826;27;20308;-82
2024/04/19 05:00:39;;;;;;;19.77;18.17;;;5.20;99.90;;;;;;5177360;27;20241;-81
2024/04/19 05:03:08;;;;;;;20.73;18.93;;;5.10;99.90;;;;;;5194923;27;20743;-82
2024/04/19 05:05:36;;;;;;;19.57;17.93;;;5.20;99.90;;;;;;5183760;27;20245;-82
2024/04/19 05:08:05;;;;;;;19.37;17.77;;;5.20;99.90;;;;;;5193765;27;20274;-81
2024/04/19 05:10:33;;;;;;;19.87;18.07;;;5.30;99.90;;;;;;5220790;27;20609;-82
2024/04/19 05:13:02;;;;;;;19.47;17.90;;;5.30;99.90;;;;;;5192280;27;20312;-82
2024/04/19 05:15:30;;;;;;;19.80;18.23;;;5.30;99.90;;;;;;5213725;27;20250;-82
2024/04/19 05:17:59;;;;;;;19.10;17.60;;;5.40;99.90;;;;;;5199108;27;20245;-82
2024/04/19 05:20:27;;;;;;;19.00;17.33;;;5.40;99.90;;;;;;5203002;27;20716;-82
2024/04/19 05:22:58;;;;;;;18.43;16.93;;;5.40;99.90;;;;;;5189760;27;20248;-82
2024/04/19 05:25:27;;;;;;;20.03;18.37;;;5.40;99.90;;;;;;5180777;27;20363;-82
2024/04/19 05:27:55;;;;;;;20.10;18.50;;;5.50;99.90;;;;;;5178837;27;20745;-82
2024/04/19 05:30:27;;;;;;;19.10;17.50;;;5.50;99.90;;;;;;5180912;27;20295;-81
2024/04/19 05:32:55;;;;;;;19.03;17.43;;;5.50;99.90;;;;;;5191692;27;20305;-82
2024/04/19 05:35:24;;;;;;;19.00;17.43;;;5.60;99.90;;;;;;5212373;27;20249;-82
2024/04/19 05:37:56;;;;;;;18.83;17.33;;;5.60;99.90;;;;;;5179381;27;20246;-82
2024/04/19 05:40:27;;;;;;;18.83;17.33;;;5.60;99.90;;;;;;5211002;27;20292;-82
2024/04/19 05:42:55;;;;;;;18.97;17.17;;;5.70;99.90;;;;;;5204730;27;20252;-81
2024/04/19 05:45:24;;;;;;;17.93;16.57;;;5.70;99.90;;;;;;5179106;27;20254;-82
2024/04/19 05:47:53;;;;;;;18.63;17.13;;;5.80;99.90;;;;;;5190510;27;20239;-82
2024/04/19 05:50:21;;;;;;;18.47;16.97;;;5.90;99.90;;;;;;5206080;27;20255;-81
2024/04/19 05:52:50;;;;;;;18.73;17.13;;;6.00;99.90;;;;;;5205378;27;20886;-81
2024/04/19 05:55:19;;;;;;;18.57;16.97;;;6.00;99.90;;;;;;5189742;27;20389;-82
2024/04/19 05:57:50;;;;;;;17.70;16.30;;;6.10;99.90;;;;;;5210244;27;20250;-82
2024/04/19 06:00:19;;;;;;;17.30;15.93;;;6.20;99.90;;;;;;5191945;27;20802;-82
2024/04/19 06:02:47;;;;;;;16.43;15.13;;;6.30;99.90;;;;;;5186969;27;20361;-82
2024/04/19 06:05:16;;;;;;;17.50;16.10;;;6.30;99.90;;;;;;5207420;27;20337;-83
2024/04/19 06:07:46;;;;;;;17.00;15.50;;;6.30;99.90;;;;;;5221024;27;20242;-82
2024/04/19 06:10:14;;;;;;;18.30;16.90;;;6.40;99.90;;;;;;5179685;27;20702;-82
2024/04/19 06:12:44;;;;;;;16.50;15.20;;;6.40;99.90;;;;;;5193745;27;20370;-82
2024/04/19 06:15:15;;;;;;;15.93;14.73;;;6.50;99.90;;;;;;5181674;27;20295;-82
2024/04/19 06:17:43;;;;;;;16.10;14.80;;;6.60;99.90;;;;;;5210701;27;20238;-82
2024/04/19 06:20:12;;;;;;;16.83;15.43;;;6.60;99.90;;;;;;5179343;27;20275;-82
2024/04/19 06:22:40;;;;;;;15.57;14.17;;;6.70;99.90;;;;;;5189286;27;20238;-82
2024/04/19 06:25:10;;;;;;;14.43;13.23;;;6.80;99.90;;;;;;5180399;27;20239;-82
2024/04/19 06:27:38;;;;;;;14.47;13.47;;;6.90;99.90;;;;;;5185003;27;20236;-82
2024/04/19 06:30:08;;;;;;;16.00;14.70;;;7.00;99.90;;;;;;5179764;27;20244;-83
2024/04/19 06:32:39;;;;;;;15.40;14.00;;;7.10;99.90;;;;;;5211584;27;20699;-82
2024/04/19 06:35:09;;;;;;;14.37;13.07;;;7.10;99.90;;;;;;5181593;27;20284;-82
2024/04/19 06:37:37;;;;;;;14.57;13.57;;;7.30;99.90;;;;;;5207779;27;20759;-83
2024/04/19 06:40:07;;;;;;;14.83;13.67;;;7.40;99.90;;;;;;5190493;27;20243;-82
2024/04/19 06:42:36;;;;;;;13.97;12.87;;;7.50;99.90;;;;;;5205489;27;20243;-84
2024/04/19 06:45:04;;;;;;;7.80;6.87;;;7.60;99.90;;;;;;5205402;27;20242;-82
2024/04/19 06:47:34;;;;;;;10.10;7.77;;;7.70;99.90;;;;;;5204231;27;20291;-82
2024/04/19 06:50:05;;;;;;;12.70;11.67;;;7.80;99.90;;;;;;5177510;27;20252;-82
2024/04/19 06:52:34;;;;;;;13.93;12.73;;;8.00;99.90;;;;;;5185853;27;20795;-82
2024/04/19 06:55:02;;;;;;;13.60;12.30;;;8.10;99.90;;;;;;5192062;27;20289;-82
2024/04/19 06:57:31;;;;;;;13.50;12.40;;;8.10;99.90;;;;;;5183316;27;20284;-83
2024/04/19 07:00:00;;;;;;;10.63;9.57;;;8.20;99.90;;;;;;5190957;27;20318;-82
2024/04/19 07:02:29;;;;;;;12.87;11.80;;;8.30;99.90;;;;;;5181529;27;20735;-83
2024/04/19 07:04:57;;;;;;;10.77;9.87;;;8.30;99.90;;;;;;5186634;27;20239;-86
2024/04/19 07:07:28;;;;;;;7.03;5.83;;;8.40;99.90;;;;;;5182298;27;20286;-84
2024/04/19 07:09:57;;;;;;;13.00;12.00;;;8.50;99.90;;;;;;5201378;27;20290;-83
2024/04/19 07:12:26;;;;;;;10.97;9.60;;;8.70;99.90;;;;;;5192372;27;20248;-84
2024/04/19 07:14:55;;;;;;;9.57;8.77;;;9.00;99.90;;;;;;5201301;27;20274;-83
2024/04/19 07:17:23;;;;;;;7.07;6.37;;;9.10;99.90;;;;;;5205848;27;20566;-83
2024/04/19 07:19:52;;;;;;;12.50;11.43;;;9.10;99.90;;;;;;5210924;27;20254;-82
2024/04/19 07:22:20;;;;;;;13.37;12.27;;;9.30;99.90;;;;;;5204128;27;20236;-82
2024/04/19 07:24:51;;;;;;;9.10;8.27;;;9.30;99.90;;;;;;5201061;27;20234;-83
2024/04/19 07:27:20;;;;;;;10.97;10.00;;;9.40;99.90;;;;;;5192028;27;20240;-82
2024/04/19 07:29:48;;;;;;;13.20;12.00;;;9.60;99.90;;;;;;5218681;27;20252;-83
2024/04/19 07:32:17;;;;;;;10.67;9.77;;;9.80;99.90;;;;;;5177954;27;20815;-83
2024/04/19 07:34:46;;;;;;;10.30;9.40;;;9.80;99.90;;;;;;5218242;27;20597;-82
2024/04/19 07:37:14;;;;;;;11.10;10.20;;;9.90;99.90;;;;;;5182385;27;21027;-82
2024/04/19 07:39:43;;;;;;;9.90;9.10;;;9.80;99.90;;;;;;5177589;27;20737;-83
2024/04/19 07:42:14;;;;;;;11.77;10.67;;;9.60;99.90;;;;;;5207264;27;20248;-83
2024/04/19 07:44:42;;;;;;;11.17;10.27;;;9.30;99.90;;;;;;5191407;27;20252;-83
2024/04/19 07:47:11;;;;;;;11.33;10.33;;;9.00;99.90;;;;;;5190022;27;20236;-83
2024/04/19 07:49:39;;;;;;;7.67;6.97;;;8.80;99.90;;;;;;5189927;27;20287;-82
2024/04/19 07:52:08;;;;;;;8.13;7.33;;;8.60;99.90;;;;;;5185818;27;20252;-82
2024/04/19 07:54:36;;;;;;;9.03;8.13;;;8.60;99.90;;;;;;5200866;27;20279;-83
2024/04/19 07:57:05;;;;;;;6.87;5.83;;;8.50;99.90;;;;;;5204493;27;20247;-82
2024/04/19 07:59:36;;;;;;;7.50;5.80;;;8.50;99.90;;;;;;5179681;27;20522;-82
2024/04/19 08:02:05;;;;;;;9.67;8.93;;;8.70;99.90;;;;;;5205002;27;20251;-83
2024/04/19 08:04:33;;;;;;;6.77;5.50;;;8.80;99.90;;;;;;5195955;27;20289;-83
2024/04/19 08:07:02;;;;;;;5.60;5.00;;;9.00;99.90;;;;;;5183456;27;20240;-82
2024/04/19 08:09:33;;;;;;;6.70;5.40;;;9.00;99.90;;;;;;5212030;27;20251;-81
2024/04/19 08:12:03;;;;;;;6.47;5.83;;;9.00;99.90;;;;;;5191052;27;20594;-84
2024/04/19 08:14:31;;;;;;;7.57;5.00;;;9.00;99.90;;;;;;5198214;27;20274;-80
2024/04/19 08:17:02;;;;;;;6.33;5.70;;;9.00;99.90;;;;;;5178093;27;20359;-81
2024/04/19 08:19:31;;;;;;;5.10;4.60;;;8.90;99.90;;;;;;5182821;27;20240;-81
2024/04/19 08:21:59;;;;;;;6.30;4.33;;;8.90;99.90;;;;;;5203680;27;20289;-81
2024/04/19 08:24:28;;;;;;;5.70;4.67;;;9.00;99.90;;;;;;5193693;27;20600;-81
2024/04/19 08:26:56;;;;;;;6.50;5.43;;;9.00;99.90;;;;;;5189212;27;20254;-81
2024/04/19 08:29:25;;;;;;;7.37;6.77;;;9.00;99.90;;;;;;5212645;27;20252;-81
2024/04/19 08:31:53;;;;;;;6.93;6.07;;;9.00;99.90;;;;;;5187725;27;20290;-80
2024/04/19 08:34:25;;;;;;;5.67;5.07;;;8.80;99.90;;;;;;5178738;27;20294;-81
2024/04/19 08:36:53;;;;;;;5.30;4.30;;;8.70;99.90;;;;;;5183116;27;20319;-81
2024/04/19 08:39:22;;;;;;;5.17;4.50;;;8.70;99.90;;;;;;5177295;27;20338;-82
2024/04/19 08:41:51;;;;;;;5.70;5.20;;;8.80;99.90;;;;;;5204392;27;20277;-81
2024/04/19 08:44:20;;;;;;;5.60;4.90;;;8.80;99.90;;;;;;5183095;27;20290;-80
2024/04/19 08:46:50;;;;;;;5.20;4.63;;;8.90;99.90;;;;;;5207217;27;20277;-81
2024/04/19 08:49:16;;;;;;;5.13;4.30;;;8.90;99.90;;;;;;5189611;27;20256;-80
2024/04/19 08:51:47;;;;;;;6.33;5.10;;;9.10;99.90;;;;;;5181325;27;20279;-81
2024/04/19 08:54:16;;;;;;;10.37;9.47;;;9.10;99.90;;;;;;5222837;27;21131;-80
2024/04/19 08:56:46;;;;;;;10.77;9.87;;;9.00;99.90;;;;;;5186731;27;20247;-80
2024/04/19 08:59:15;;;;;;;8.00;7.30;;;9.00;99.90;;;;;;5191308;27;20248;-81
2024/04/19 09:01:43;;;;;;;5.47;4.63;;;8.80;99.90;;;;;;5213193;27;20240;-81
2024/04/19 09:04:12;;;;;;;5.10;4.60;;;8.80;99.90;;;;;;5190760;27;20240;-80
2024/04/19 09:06:40;;;;;;;5.77;5.03;;;8.70;99.90;;;;;;5211019;27;20248;-80
2024/04/19 09:09:12;;;;;;;6.13;5.00;;;8.60;99.90;;;;;;5180163;27;20735;-81
2024/04/19 09:11:44;;;;;;;6.07;5.30;;;8.60;99.90;;;;;;5184528;27;20315;-80
2024/04/19 09:14:12;;;;;;;6.53;5.17;;;8.50;99.90;;;;;;5180948;27;20294;-82
2024/04/19 09:16:41;;;;;;;6.27;5.17;;;8.50;99.90;;;;;;5206521;27;20279;-80
2024/04/19 09:19:10;;;;;;;7.47;6.77;;;8.60;99.90;;;;;;5178113;27;20283;-80
2024/04/19 09:21:38;;;;;;;5.50;4.67;;;8.60;99.90;;;;;;5204038;27;20586;-80
2024/04/19 09:24:09;;;;;;;5.80;5.20;;;8.60;99.90;;;;;;5185291;27;20240;-80
2024/04/19 09:26:40;;;;;;;11.63;10.83;;;8.50;99.90;;;;;;5186909;27;20644;-81
2024/04/19 09:29:08;;;;;;;7.60;6.90;;;8.50;99.90;;;;;;5209837;27;20699;-80
2024/04/19 09:31:37;;;;;;;6.70;6.10;;;8.50;99.90;;;;;;5187962;27;20786;-81
2024/04/19 09:34:06;;;;;;;6.47;5.87;;;8.60;99.90;;;;;;5193921;27;20255;-80
2024/04/19 09:36:34;;;;;;;12.07;11.13;;;8.60;99.90;;;;;;5186696;27;20240;-80
2024/04/19 09:39:05;;;;;;;10.33;9.43;;;8.50;99.90;;;;;;5188310;27;20255;-80
2024/04/19 09:41:36;;;;;;;13.20;12.30;;;8.60;99.90;;;;;;5211083;27;20255;-82
2024/04/19 09:44:09;;;;;;;7.90;7.17;;;8.50;99.90;;;;;;5190253;27;20294;-79
2024/04/19 09:46:42;;;;;;;11.57;10.57;;;8.50;99.90;;;;;;5185267;27;20931;-80
2024/04/19 09:49:12;;;;;;;8.43;7.73;;;8.40;99.90;;;;;;5188966;27;20711;-80
2024/04/19 09:51:46;;;;;;;9.20;8.30;;;8.40;99.90;;;;;;5195396;27;20310;-80
2024/04/19 09:54:17;;;;;;;9.93;9.13;;;8.30;99.90;;;;;;5224817;27;20258;-84
2024/04/19 09:56:52;;;;;;;10.67;9.83;;;8.30;99.90;;;;;;5238288;27;20272;-83
2024/04/19 09:59:24;;;;;;;9.93;9.23;;;8.40;99.90;;;;;;5197143;27;20250;-83
2024/04/19 10:01:53;;;;;;;8.27;7.50;;;8.40;99.90;;;;;;5205957;27;20279;-84
2024/04/19 10:04:22;;;;;;;12.60;11.70;;;8.40;99.90;;;;;;5207580;27;20248;-83
2024/04/19 10:06:51;;;;;;;12.33;11.43;;;8.40;99.90;;;;;;5225601;27;20694;-83
2024/04/19 10:09:25;;;;;;;12.40;11.50;;;8.30;99.90;;;;;;5180551;27;20306;-82
2024/04/19 10:11:55;;;;;;;14.17;13.17;;;8.30;99.90;;;;;;5212241;27;20737;-82
2024/04/19 10:14:29;;;;;;;13.97;12.83;;;8.30;99.90;;;;;;5209190;27;20280;-82
2024/04/19 10:16:57;;;;;;;13.63;12.63;;;8.40;99.90;;;;;;5181112;27;20805;-82
2024/04/19 10:19:30;;;;;;;12.93;12.03;;;8.50;99.90;;;;;;5180742;27;20248;-82
2024/04/19 10:22:01;;;;;;;7.60;6.80;;;8.60;99.90;;;;;;5187228;27;20240;-82
2024/04/19 10:24:32;;;;;;;10.30;9.50;;;8.70;99.90;;;;;;5206907;27;20252;-80
2024/04/19 10:27:01;;;;;;;10.27;9.47;;;8.60;99.90;;;;;;5219016;27;20622;-82
2024/04/19 10:29:32;;;;;;;9.27;8.57;;;8.60;99.90;;;;;;5220933;27;20296;-82
2024/04/19 10:32:01;;;;;;;6.20;5.60;;;8.70;99.90;;;;;;5221478;27;20281;-81
2024/04/19 10:34:29;;;;;;;8.50;7.80;;;8.70;99.90;;;;;;5182667;27;20291;-82
2024/04/19 10:36:58;;;;;;;11.80;10.90;;;8.70;99.90;;;;;;5181728;27;20252;-84
2024/04/19 10:39:27;;;;;;;9.73;6.47;;;8.60;99.90;;;;;;5191186;27;20284;-82
2024/04/19 10:41:56;;;;;;;7.90;7.20;;;8.50;99.90;;;;;;5182393;27;20240;-81
2024/04/19 10:44:48;;;;;;;12.40;11.50;;;8.50;99.90;;;;;;5194444;27;20251;-81
2024/04/19 10:47:20;;;;;;;11.67;10.73;;;8.30;99.90;;;;;;5183834;27;20255;-83
2024/04/19 10:49:49;;;;;;;8.77;8.03;;;8.30;99.90;;;;;;5194793;27;20299;-82
2024/04/19 10:52:22;;;;;;;7.60;7.00;;;8.30;99.90;;;;;;5193579;27;20242;-82
2024/04/19 10:54:48;;;;;;;6.20;5.70;;;8.40;99.90;;;;;;5201804;27;20277;-82
2024/04/19 10:57:17;;;;;;;9.17;8.50;;;8.40;99.90;;;;;;5210615;27;20615;-81
2024/04/19 10:59:48;;;;;;;5.40;4.90;;;8.50;99.90;;;;;;5178086;27;20252;-82
2024/04/19 11:02:18;;;;;;;6.47;4.77;;;8.50;99.90;;;;;;5190620;27;20244;-82
2024/04/19 11:04:47;;;;;;;6.87;6.00;;;8.50;99.90;;;;;;5206760;27;20294;-82
2024/04/19 11:07:15;;;;;;;7.03;6.43;;;8.60;99.90;;;;;;5213896;27;20731;-83
2024/04/19 11:09:44;;;;;;;7.87;7.27;;;8.50;99.90;;;;;;5192247;27;20600;-82
2024/04/19 11:12:12;;;;;;;5.43;4.40;;;8.50;99.90;;;;;;5194812;27;20331;-82
2024/04/19 11:14:42;;;;;;;6.67;6.17;;;8.50;99.90;;;;;;5215176;27;20637;-81
2024/04/19 11:17:13;;;;;;;10.83;10.03;;;8.60;99.90;;;;;;5201590;27;20283;-84
2024/04/19 11:19:41;;;;;;;5.67;5.27;;;8.70;99.90;;;;;;5186752;27;20290;-82
2024/04/19 11:22:10;;;;;;;11.10;10.30;;;8.80;99.90;;;;;;5180936;27;20291;-83
2024/04/19 11:24:39;;;;;;;6.30;5.73;;;8.80;99.90;;;;;;5180781;27;20244;-82
2024/04/19 11:27:08;;;;;;;5.10;4.70;;;8.80;99.90;;;;;;5193927;27;20240;-83
2024/04/19 11:29:37;;;;;;;6.30;5.80;;;8.80;99.90;;;;;;5213926;27;20260;-82
2024/04/19 11:32:06;;;;;;;4.50;4.17;;;8.70;99.90;;;;;;5188881;27;20239;-82
2024/04/19 11:34:37;;;;;;;4.90;4.50;;;8.70;99.90;;;;;;5209785;27;20246;-82
2024/04/19 11:37:06;;;;;;;4.20;3.80;;;8.60;99.90;;;;;;5195996;27;20244;-81
2024/04/19 11:39:36;;;;;;;5.20;4.80;;;8.60;99.90;;;;;;5204854;27;20293;-83
2024/04/19 11:42:06;;;;;;;9.73;9.13;;;8.60;99.90;;;;;;5180281;27;20294;-82
2024/04/19 11:44:34;;;;;;;7.33;6.77;;;8.60;99.90;;;;;;5189882;27;20306;-81
2024/04/19 11:47:06;;;;;;;4.90;4.50;;;8.60;99.90;;;;;;5180232;27;20287;-82
2024/04/19 11:49:37;;;;;;;10.40;9.70;;;8.50;99.90;;;;;;5201463;27;20256;-82
2024/04/19 11:52:08;;;;;;;10.30;9.70;;;8.50;99.90;;;;;;5191136;27;20251;-81
2024/04/19 11:54:37;;;;;;;4.67;4.27;;;8.40;99.90;;;;;;5209888;27;20252;-81
2024/04/19 11:57:03;;;;;;;9.50;8.90;;;8.40;99.90;;;;;;5189129;27;20311;-81
2024/04/19 11:59:32;;;;;;;10.00;9.30;;;8.30;99.90;;;;;;5183790;27;20293;-81
2024/04/19 12:02:00;;;;;;;9.90;9.30;;;8.10;99.90;;;;;;5204121;27;20740;-83
2024/04/19 12:04:28;;;;;;;9.70;9.00;;;8.00;99.90;;;;;;5193632;27;20236;-81
2024/04/19 12:07:00;;;;;;;9.73;9.13;;;8.00;99.90;;;;;;5188787;27;20299;-81
2024/04/19 12:09:28;;;;;;;10.10;9.50;;;8.00;99.90;;;;;;5195029;27;20251;-83
2024/04/19 12:11:59;;;;;;;10.43;9.70;;;7.90;99.90;;;;;;5187440;27;20572;-81
2024/04/19 12:14:34;;;;;;;9.67;9.07;;;7.90;99.90;;;;;;5201267;27;20359;-80
2024/04/19 12:17:03;;;;;;;9.80;9.10;;;7.90;99.90;;;;;;5192474;27;20315;-81
2024/04/19 12:19:32;;;;;;;10.60;10.00;;;7.90;99.90;;;;;;5185580;27;20290;-82
2024/04/19 12:22:03;;;;;;;10.57;9.97;;;7.90;99.90;;;;;;5235519;27;20247;-79
2024/04/19 12:24:34;;;;;;;10.53;9.83;;;7.80;99.90;;;;;;5209355;27;20243;-83
2024/04/19 12:27:04;;;;;;;10.87;10.27;;;7.90;99.90;;;;;;5175974;27;20709;-79
2024/04/19 12:29:32;;;;;;;10.67;9.80;;;7.90;99.90;;;;;;5177105;27;20296;-79
2024/04/19 12:32:03;;;;;;;10.97;10.27;;;7.90;99.90;;;;;;5187426;27;20295;-81
2024/04/19 12:34:31;;;;;;;10.50;9.90;;;7.90;99.90;;;;;;5177936;27;20281;-79
2024/04/19 12:37:02;;;;;;;10.80;10.10;;;7.90;99.90;;;;;;5186488;27;20295;-82
2024/04/19 12:39:31;;;;;;;10.80;10.10;;;7.90;99.90;;;;;;5198211;27;20251;-81
2024/04/19 12:41:59;;;;;;;10.83;10.13;;;7.80;99.90;;;;;;5195577;27;20743;-81
2024/04/19 12:44:28;;;;;;;10.93;10.23;;;7.80;99.90;;;;;;5207846;27;20248;-81
2024/04/19 12:46:57;;;;;;;11.10;10.40;;;7.60;99.90;;;;;;5203506;27;20252;-81
2024/04/19 12:49:25;;;;;;;11.13;10.43;;;7.60;99.90;;;;;;5175842;27;20298;-81
2024/04/19 12:51:57;;;;;;;9.93;9.33;;;7.50;99.90;;;;;;5203402;27;20260;-79
2024/04/19 12:54:28;;;;;;;9.90;9.20;;;7.50;99.90;;;;;;5177629;27;20239;-79
2024/04/19 12:56:56;;;;;;;9.87;9.27;;;7.50;99.90;;;;;;5190061;27;20240;-79
2024/04/19 12:59:25;;;;;;;10.00;9.30;;;7.60;99.90;;;;;;5186433;27;20246;-82